Terminal Aerodrome Forecast
Issued by NWS

Home | Current Version | Previous Version | Text Only | Print | Product List | Glossary Off
Versions: 1 2 3 4 5 6 7 8 9 10 11 12 13 14 15 16 17 18 19 20 21 22 23 24 25 26 27 28 29 30 31 32 33

000
FTUS43 KDDC 230500
TAFGCK
TAF
KGCK 230535Z 2306/2406 VRB12KT P6SM -TSRA SCT013 BKN060CB
     FM230900 20007KT P6SM SCT090 BKN150
     FM231900 20019G26KT P6SM SKC=

USA.gov is the U.S. government's official web portal to all federal, state and local government web resources and services.